createdAt,value
2022-08-26T00:00:35.874Z,24.68
2022-08-26T00:01:35.869Z,24.65
2022-08-26T00:02:36.015Z,24.68
2022-08-26T00:03:35.904Z,24.65
2022-08-26T00:04:35.822Z,24.65
2022-08-26T00:05:35.829Z,24.65
2022-08-26T00:06:35.810Z,24.62
2022-08-26T00:07:35.879Z,24.65
2022-08-26T00:08:35.802Z,24.63
2022-08-26T00:09:39.022Z,24.62
2022-08-26T00:10:35.774Z,24.63
2022-08-26T00:11:35.795Z,24.62
2022-08-26T00:12:37.779Z,24.63
2022-08-26T00:13:35.754Z,24.63
2022-08-26T00:14:35.749Z,24.60
2022-08-26T00:15:35.758Z,24.58
2022-08-26T00:16:35.853Z,24.53
2022-08-26T00:17:35.720Z,24.55
2022-08-26T00:18:38.685Z,24.48
2022-08-26T00:19:35.685Z,24.51
2022-08-26T00:20:35.674Z,24.45
2022-08-26T00:21:35.673Z,24.48
2022-08-26T00:22:35.677Z,24.43
2022-08-26T00:23:35.645Z,24.43
2022-08-26T00:24:35.617Z,24.44
2022-08-26T00:25:35.643Z,24.43
2022-08-26T00:26:35.642Z,24.40
2022-08-26T00:27:35.633Z,24.40
2022-08-26T00:28:35.608Z,24.41
2022-08-26T00:29:37.467Z,24.38
2022-08-26T00:30:35.574Z,24.37
2022-08-26T00:31:35.611Z,24.34
2022-08-26T00:32:35.620Z,24.34
2022-08-26T00:33:35.610Z,24.34
2022-08-26T00:34:35.706Z,24.33
2022-08-26T00:35:36.203Z,24.34
2022-08-26T00:36:35.657Z,24.31
2022-08-26T00:37:35.505Z,24.34
2022-08-26T00:38:35.483Z,24.33
2022-08-26T00:39:35.486Z,24.33
2022-08-26T00:40:35.604Z,24.29
2022-08-26T00:41:35.458Z,24.31
2022-08-26T00:42:35.454Z,24.31
2022-08-26T00:43:46.325Z,24.31
2022-08-26T00:44:35.597Z,24.33
2022-08-26T00:45:35.444Z,24.33
2022-08-26T00:46:35.405Z,24.31
2022-08-26T00:47:35.412Z,24.34
2022-08-26T00:48:35.381Z,24.36
2022-08-26T00:49:35.381Z,24.34
2022-08-26T00:50:35.373Z,24.36
2022-08-26T00:51:35.368Z,24.33
2022-08-26T00:52:35.369Z,24.33
2022-08-26T00:53:35.323Z,24.34
2022-08-26T00:54:35.362Z,24.29
2022-08-26T00:55:38.217Z,24.31
2022-08-26T00:56:35.333Z,24.31
2022-08-26T00:57:35.335Z,24.26
2022-08-26T00:58:35.319Z,24.23
2022-08-26T00:59:35.264Z,24.21
2022-08-26T01:00:35.270Z,24.22
2022-08-26T01:01:35.362Z,24.21
2022-08-26T01:02:35.467Z,24.19
2022-08-26T01:03:35.291Z,24.16
2022-08-26T01:04:35.289Z,24.13
2022-08-26T01:05:35.230Z,24.15
2022-08-26T01:06:35.210Z,24.13
2022-08-26T01:07:35.200Z,24.11
2022-08-26T01:08:35.208Z,24.08
2022-08-26T01:09:35.185Z,24.11
2022-08-26T01:10:35.173Z,24.11
2022-08-26T01:11:35.182Z,24.06
2022-08-26T01:12:35.145Z,24.07
2022-08-26T01:13:35.146Z,24.06
2022-08-26T01:14:35.145Z,24.06
2022-08-26T01:15:35.121Z,24.06
2022-08-26T01:16:35.173Z,24.01
2022-08-26T01:17:35.075Z,24.03
2022-08-26T01:18:35.199Z,24.04
2022-08-26T01:19:35.063Z,24.00
2022-08-26T01:20:35.086Z,23.98
2022-08-26T01:21:35.094Z,23.98
2022-08-26T01:22:35.049Z,23.97
2022-08-26T01:23:35.041Z,23.97
2022-08-26T01:24:35.022Z,23.92
2022-08-26T01:25:35.026Z,23.94
2022-08-26T01:26:35.005Z,23.91
2022-08-26T01:27:34.990Z,23.92
2022-08-26T01:28:35.019Z,23.89
2022-08-26T01:29:34.999Z,23.89
2022-08-26T01:30:34.994Z,23.89
2022-08-26T01:31:34.988Z,23.86
2022-08-26T01:32:34.954Z,23.86
2022-08-26T01:33:42.130Z,23.88
2022-08-26T01:34:34.937Z,23.85
2022-08-26T01:35:34.894Z,23.84
2022-08-26T01:36:34.954Z,23.84
2022-08-26T01:37:34.878Z,23.85
2022-08-26T01:38:34.914Z,23.81
2022-08-26T01:39:34.898Z,23.79
2022-08-26T01:40:34.866Z,23.79
2022-08-26T01:41:34.860Z,23.74
2022-08-26T01:42:34.837Z,23.76
2022-08-26T01:43:34.846Z,23.74
2022-08-26T01:44:35.023Z,23.74
2022-08-26T01:45:34.855Z,23.76
2022-08-26T01:46:34.816Z,23.70
2022-08-26T01:47:34.790Z,23.69
2022-08-26T01:48:34.793Z,23.69
2022-08-26T01:49:34.804Z,23.70
2022-08-26T01:50:34.817Z,23.64
2022-08-26T01:51:34.729Z,23.61
2022-08-26T01:52:34.757Z,23.60
2022-08-26T01:53:34.764Z,23.59
2022-08-26T01:54:34.728Z,23.55
2022-08-26T01:55:34.696Z,23.55
2022-08-26T01:56:36.643Z,23.51
2022-08-26T01:57:34.675Z,23.48
2022-08-26T01:58:34.677Z,23.44
2022-08-26T01:59:34.690Z,23.42
2022-08-26T02:00:34.762Z,23.44
2022-08-26T02:01:34.648Z,23.42
2022-08-26T02:02:34.663Z,23.42
2022-08-26T02:03:34.651Z,23.42
2022-08-26T02:04:34.654Z,23.42
2022-08-26T02:05:34.638Z,23.45
2022-08-26T02:06:34.581Z,23.44
2022-08-26T02:07:34.606Z,23.46
2022-08-26T02:08:34.599Z,23.44
2022-08-26T02:09:41.137Z,23.46
2022-08-26T02:10:34.603Z,23.46
2022-08-26T02:11:34.559Z,23.42
2022-08-26T02:12:34.592Z,23.37
2022-08-26T02:13:35.117Z,23.36
2022-08-26T02:14:34.514Z,23.34
2022-08-26T02:15:34.520Z,23.31
2022-08-26T02:16:34.630Z,23.25
2022-08-26T02:17:34.487Z,23.21
2022-08-26T02:18:34.466Z,23.15
2022-08-26T02:19:34.447Z,23.13
2022-08-26T02:20:34.501Z,23.08
2022-08-26T02:21:34.635Z,23.11
2022-08-26T02:22:34.456Z,23.07
2022-08-26T02:24:28.804Z,23.13
2022-08-26T02:26:40.412Z,23.14
2022-08-26T02:27:41.108Z,23.13
2022-08-26T02:30:23.276Z,23.21
2022-08-26T02:31:24.299Z,23.18
2022-08-26T02:32:24.269Z,23.18
2022-08-26T02:33:24.269Z,23.22
2022-08-26T02:34:24.316Z,23.26
2022-08-26T02:35:24.392Z,23.23
2022-08-26T02:36:24.200Z,23.26
2022-08-26T02:37:24.259Z,23.25
2022-08-26T02:38:24.616Z,23.25
2022-08-26T02:39:24.184Z,23.21
2022-08-26T02:40:24.661Z,23.21
2022-08-26T02:41:24.174Z,23.18
2022-08-26T02:42:24.160Z,23.18
2022-08-26T02:43:31.318Z,23.21
2022-08-26T02:44:24.138Z,23.18
2022-08-26T02:45:24.146Z,23.15
2022-08-26T02:46:30.071Z,23.15
2022-08-26T02:47:24.839Z,23.13
2022-08-26T02:48:24.074Z,23.13
2022-08-26T02:49:24.078Z,23.11
2022-08-26T02:50:24.071Z,23.11
2022-08-26T02:51:24.086Z,23.13
2022-08-26T02:52:24.040Z,23.14
2022-08-26T02:53:25.359Z,23.14
2022-08-26T02:54:24.003Z,23.11
2022-08-26T02:55:24.631Z,23.17
2022-08-26T02:56:24.009Z,23.14
2022-08-26T02:57:24.030Z,23.13
2022-08-26T02:58:23.983Z,23.14
2022-08-26T02:59:24.439Z,23.10
2022-08-26T03:00:24.036Z,23.11
2022-08-26T03:02:14.985Z,23.10
2022-08-26T03:03:15.880Z,23.04
2022-08-26T03:04:15.917Z,23.04
2022-08-26T03:05:15.876Z,23.03
2022-08-26T03:06:15.879Z,23.01
2022-08-26T03:07:15.902Z,22.96
2022-08-26T03:08:15.979Z,22.96
2022-08-26T03:09:18.559Z,22.92
2022-08-26T03:10:15.829Z,22.86
2022-08-26T03:11:15.874Z,22.85
2022-08-26T03:12:15.791Z,22.85
2022-08-26T03:13:15.872Z,22.83
2022-08-26T03:14:15.782Z,22.81
2022-08-26T03:15:17.813Z,22.80
2022-08-26T03:16:15.814Z,22.83
2022-08-26T03:17:15.877Z,22.81
2022-08-26T03:18:15.755Z,22.83
2022-08-26T03:19:17.513Z,22.83
2022-08-26T03:20:15.731Z,22.83
2022-08-26T03:21:15.694Z,22.85
2022-08-26T03:22:15.706Z,22.88
2022-08-26T03:23:15.701Z,22.86
2022-08-26T03:24:15.697Z,22.93
2022-08-26T03:25:15.662Z,22.92
2022-08-26T03:26:15.844Z,22.92
2022-08-26T03:27:15.648Z,22.91
2022-08-26T03:28:15.636Z,22.91
2022-08-26T03:29:15.624Z,22.89
2022-08-26T03:30:15.615Z,22.89
2022-08-26T03:31:15.695Z,22.86
2022-08-26T03:32:15.594Z,22.86
2022-08-26T03:33:15.776Z,22.86
2022-08-26T03:34:15.568Z,22.86
2022-08-26T03:35:15.664Z,22.88
2022-08-26T03:36:15.588Z,22.86
2022-08-26T03:37:16.211Z,22.86
2022-08-26T03:38:15.533Z,22.88
2022-08-26T03:39:15.652Z,22.88
2022-08-26T03:40:15.542Z,22.91
2022-08-26T03:41:16.135Z,22.89
2022-08-26T03:42:15.474Z,22.91
2022-08-26T03:43:15.495Z,22.89
2022-08-26T03:44:15.490Z,22.86
2022-08-26T03:45:15.520Z,22.85
2022-08-26T03:46:15.494Z,22.80
2022-08-26T03:47:15.449Z,22.83
2022-08-26T03:48:15.455Z,22.83
2022-08-26T03:49:15.436Z,22.81
2022-08-26T03:50:15.432Z,22.85
2022-08-26T03:51:18.314Z,22.83
2022-08-26T03:52:16.098Z,22.81
2022-08-26T03:53:15.409Z,22.83
2022-08-26T03:54:15.396Z,22.88
2022-08-26T03:55:15.366Z,22.88
2022-08-26T03:56:15.341Z,22.85
2022-08-26T03:57:15.350Z,22.88
2022-08-26T03:58:15.307Z,22.86
2022-08-26T03:59:15.357Z,22.89
2022-08-26T04:00:15.278Z,22.88
2022-08-26T04:01:15.678Z,22.88
2022-08-26T04:02:15.246Z,22.91
2022-08-26T04:03:18.611Z,22.89
2022-08-26T04:04:15.606Z,22.88
2022-08-26T04:05:15.203Z,22.86
2022-08-26T04:06:15.173Z,22.86
2022-08-26T04:07:15.203Z,22.85
2022-08-26T04:08:15.221Z,22.83
2022-08-26T04:09:15.170Z,22.83
2022-08-26T04:10:15.146Z,22.83
2022-08-26T04:11:15.137Z,22.80
2022-08-26T04:12:15.149Z,22.80
2022-08-26T04:13:15.160Z,22.77
2022-08-26T04:14:17.601Z,22.74
2022-08-26T04:15:15.134Z,22.74
2022-08-26T04:16:15.151Z,22.70
2022-08-26T04:17:15.078Z,22.66
2022-08-26T04:18:15.045Z,22.64
2022-08-26T04:19:15.092Z,22.62
2022-08-26T04:20:16.169Z,22.58
2022-08-26T04:21:15.363Z,22.56
2022-08-26T04:22:15.073Z,22.51
2022-08-26T04:23:15.013Z,22.49
2022-08-26T04:24:15.028Z,22.46
2022-08-26T04:25:14.990Z,22.46
2022-08-26T04:26:15.009Z,22.48
2022-08-26T04:27:14.965Z,22.46
2022-08-26T04:28:14.976Z,22.43
2022-08-26T04:29:14.957Z,22.41
2022-08-26T04:30:14.971Z,22.36
2022-08-26T04:31:14.970Z,22.36
2022-08-26T04:32:14.933Z,22.34
2022-08-26T04:33:14.944Z,22.34
2022-08-26T04:34:14.930Z,22.33
2022-08-26T04:35:14.905Z,22.30
2022-08-26T04:36:14.864Z,22.33
2022-08-26T04:37:14.873Z,22.34
2022-08-26T04:38:14.875Z,22.34
2022-08-26T04:39:14.890Z,22.37
2022-08-26T04:40:14.873Z,22.36
2022-08-26T04:41:17.089Z,22.36
2022-08-26T04:42:14.802Z,22.36
2022-08-26T04:43:14.850Z,22.36
2022-08-26T04:44:14.805Z,22.34
2022-08-26T04:45:14.816Z,22.36
2022-08-26T04:46:14.891Z,22.38
2022-08-26T04:47:14.798Z,22.37
2022-08-26T04:48:16.802Z,22.37
2022-08-26T04:49:14.794Z,22.36
2022-08-26T04:50:14.871Z,22.41
2022-08-26T04:51:14.753Z,22.40
2022-08-26T04:52:14.726Z,22.43
2022-08-26T04:53:14.722Z,22.46
2022-08-26T04:54:14.700Z,22.46
2022-08-26T04:55:14.701Z,22.46
2022-08-26T04:56:14.711Z,22.46
2022-08-26T04:57:14.701Z,22.49
2022-08-26T04:58:14.717Z,22.49
2022-08-26T04:59:16.674Z,22.51
2022-08-26T05:00:14.822Z,22.53
2022-08-26T05:02:07.252Z,22.56
2022-08-26T05:03:10.218Z,22.58
2022-08-26T05:04:08.101Z,22.61
2022-08-26T05:05:59.778Z,22.62
2022-08-26T05:07:02.305Z,22.62
2022-08-26T05:08:00.607Z,22.66
2022-08-26T05:09:02.124Z,22.66
2022-08-26T05:10:00.321Z,22.67
2022-08-26T05:11:00.425Z,22.68
2022-08-26T05:12:00.477Z,22.73
2022-08-26T05:13:00.314Z,22.71
2022-08-26T05:14:02.333Z,22.76
2022-08-26T05:15:00.372Z,22.83
2022-08-26T05:16:01.182Z,22.80
2022-08-26T05:17:00.272Z,22.83
2022-08-26T05:18:00.256Z,22.85
2022-08-26T05:19:00.328Z,22.89
2022-08-26T05:20:00.225Z,22.92
2022-08-26T05:21:00.266Z,22.92
2022-08-26T05:22:00.608Z,22.95
2022-08-26T05:23:01.605Z,22.99
2022-08-26T05:24:00.197Z,23.01
2022-08-26T05:25:00.320Z,23.01
2022-08-26T05:26:00.953Z,23.01
2022-08-26T05:27:00.253Z,23.06
2022-08-26T05:28:09.937Z,23.06
2022-08-26T05:29:24.194Z,23.08
2022-08-26T05:30:00.145Z,23.10
2022-08-26T05:31:00.186Z,23.13
2022-08-26T05:32:07.004Z,23.14
2022-08-26T05:33:05.252Z,23.15
2022-08-26T05:34:00.126Z,23.22
2022-08-26T05:36:10.729Z,23.26
2022-08-26T05:37:11.414Z,23.31
2022-08-26T05:38:39.240Z,23.36
2022-08-26T05:39:11.473Z,23.36
2022-08-26T05:41:27.737Z,23.46
2022-08-26T05:43:28.430Z,23.49
2022-08-26T05:45:46.200Z,23.55
2022-08-26T05:46:46.519Z,23.55
2022-08-26T05:47:46.212Z,23.61
2022-08-26T05:48:46.287Z,23.60
2022-08-26T05:49:51.581Z,23.63
2022-08-26T05:51:42.169Z,23.70
2022-08-26T05:52:43.128Z,23.71
2022-08-26T05:53:43.753Z,23.71
2022-08-26T05:55:56.577Z,23.76
2022-08-26T05:56:55.430Z,23.76
2022-08-26T05:58:48.337Z,23.81
2022-08-26T06:01:19.998Z,23.84
2022-08-26T06:03:14.980Z,23.86
2022-08-26T06:05:26.979Z,23.91
2022-08-26T06:06:33.714Z,23.94
2022-08-26T06:07:27.572Z,23.94
2022-08-26T06:12:29.786Z,24.26
2022-08-26T06:13:31.874Z,24.29
2022-08-26T06:14:29.978Z,24.28
2022-08-26T06:16:20.257Z,24.36
2022-08-26T06:17:59.197Z,24.36
2022-08-26T06:19:42.350Z,24.38
2022-08-26T06:19:47.345Z,24.38
2022-08-26T06:22:00.873Z,24.41
2022-08-26T06:23:01.681Z,24.41
2022-08-26T06:24:01.761Z,24.41
2022-08-26T06:27:03.343Z,24.51
2022-08-26T06:29:24.119Z,24.51
2022-08-26T06:32:21.053Z,24.56
2022-08-26T06:33:22.079Z,24.58
2022-08-26T06:34:22.336Z,24.63
2022-08-26T06:35:22.853Z,24.59
2022-08-26T06:36:28.585Z,24.62
2022-08-26T06:39:15.860Z,24.66
2022-08-26T06:40:16.927Z,24.66
2022-08-26T06:41:16.974Z,24.70
2022-08-26T06:42:19.310Z,24.70
2022-08-26T06:44:09.380Z,24.74
2022-08-26T06:45:10.354Z,24.66
2022-08-26T06:46:10.486Z,24.68
2022-08-26T06:47:10.337Z,24.66
2022-08-26T06:48:10.445Z,24.65
2022-08-26T06:49:10.533Z,24.68
2022-08-26T06:51:25.950Z,24.66
2022-08-26T06:55:02.709Z,24.70
2022-08-26T06:56:04.174Z,24.71
2022-08-26T06:57:03.552Z,24.70
2022-08-26T06:58:03.539Z,24.74
2022-08-26T06:59:03.683Z,24.74
2022-08-26T07:00:04.490Z,24.71
2022-08-26T07:01:11.429Z,24.74
2022-08-26T07:02:03.486Z,24.68
2022-08-26T07:03:03.524Z,24.68
2022-08-26T07:04:04.348Z,24.65
2022-08-26T07:06:15.536Z,24.65
2022-08-26T07:06:21.504Z,24.65
2022-08-26T07:07:21.968Z,24.65
2022-08-26T07:09:15.413Z,24.63
2022-08-26T07:11:08.007Z,24.66
2022-08-26T07:12:09.016Z,24.65
2022-08-26T07:14:02.020Z,24.63
2022-08-26T07:15:03.047Z,24.65
2022-08-26T07:16:04.223Z,24.70
2022-08-26T07:17:03.066Z,24.78
2022-08-26T07:18:03.130Z,24.90
2022-08-26T07:19:03.451Z,24.97
2022-08-26T07:20:02.949Z,25.04
2022-08-26T07:21:02.987Z,25.12
2022-08-26T07:22:03.519Z,25.16
2022-08-26T07:23:04.082Z,25.28
2022-08-26T07:25:19.210Z,25.55
2022-08-26T07:26:19.608Z,25.64
2022-08-26T07:27:19.618Z,25.73
2022-08-26T07:28:19.681Z,25.78
2022-08-26T07:30:32.854Z,25.77
2022-08-26T07:31:39.359Z,25.74
2022-08-26T07:32:34.446Z,25.71
2022-08-26T07:33:33.804Z,25.66
2022-08-26T07:35:44.163Z,25.66
2022-08-26T07:40:17.635Z,25.63
2022-08-26T07:42:50.951Z,25.67
2022-08-26T07:45:13.955Z,25.70
2022-08-26T07:48:18.551Z,25.74
2022-08-26T07:50:48.932Z,25.74
2022-08-26T07:52:27.034Z,25.78
2022-08-26T07:54:19.888Z,25.86
2022-08-26T07:56:11.330Z,26.03
2022-08-26T07:58:04.828Z,26.27
2022-08-26T07:59:14.089Z,26.52
2022-08-26T08:01:11.123Z,26.86
2022-08-26T08:03:44.815Z,27.57
2022-08-26T08:05:58.679Z,28.46
2022-08-26T08:06:59.696Z,28.59
2022-08-26T08:08:17.347Z,28.81
2022-08-26T08:08:59.664Z,29.18
2022-08-26T08:09:59.640Z,29.41
2022-08-26T08:10:59.745Z,29.46
2022-08-26T08:11:59.626Z,29.33
2022-08-26T08:12:59.646Z,29.09
2022-08-26T08:13:59.609Z,28.91
2022-08-26T08:14:59.591Z,28.74
2022-08-26T08:15:59.558Z,28.65
2022-08-26T08:16:59.632Z,28.57
2022-08-26T08:18:15.299Z,28.52
2022-08-26T08:18:59.581Z,28.52
2022-08-26T08:19:59.565Z,28.52
2022-08-26T08:21:19.541Z,28.69
2022-08-26T08:22:01.909Z,28.93
2022-08-26T08:24:57.079Z,29.15
2022-08-26T08:25:58.121Z,29.19
2022-08-26T08:26:58.043Z,29.19
2022-08-26T08:27:58.029Z,29.27
2022-08-26T08:28:58.012Z,29.36
2022-08-26T08:29:58.052Z,29.44
2022-08-26T08:30:58.083Z,29.52
2022-08-26T08:31:58.761Z,29.59
2022-08-26T08:32:57.987Z,29.59
2022-08-26T08:33:58.000Z,29.62
2022-08-26T08:34:57.959Z,29.62
2022-08-26T08:35:57.968Z,29.56
2022-08-26T08:36:57.965Z,29.58
2022-08-26T08:37:57.977Z,29.47
2022-08-26T08:38:58.007Z,29.44
2022-08-26T08:43:25.251Z,29.43
2022-08-26T08:44:10.465Z,29.41
2022-08-26T08:46:43.539Z,29.43
2022-08-26T08:47:03.952Z,29.50
2022-08-26T08:48:03.933Z,29.49
2022-08-26T08:50:57.750Z,29.63
2022-08-26T08:51:58.247Z,29.63
2022-08-26T08:52:58.400Z,29.71
2022-08-26T08:53:58.421Z,29.63
2022-08-26T08:54:57.964Z,29.55
2022-08-26T08:55:57.972Z,29.50
2022-08-26T08:57:12.646Z,29.41
2022-08-26T08:58:02.047Z,29.37
2022-08-26T08:58:57.988Z,29.36
2022-08-26T09:00:14.576Z,29.36
2022-08-26T09:01:35.789Z,29.28
2022-08-26T09:02:54.440Z,29.31
2022-08-26T09:02:59.397Z,29.33
2022-08-26T09:03:59.412Z,29.41
2022-08-26T09:05:31.245Z,29.43
2022-08-26T09:05:59.378Z,29.49
2022-08-26T09:08:19.827Z,29.47
2022-08-26T09:10:28.112Z,29.40
2022-08-26T09:12:40.514Z,29.71
2022-08-26T09:14:54.766Z,30.82
2022-08-26T09:15:54.990Z,31.51
2022-08-26T09:16:56.049Z,31.57
2022-08-26T09:17:54.656Z,31.54
2022-08-26T09:18:54.778Z,31.59
2022-08-26T09:19:54.630Z,31.56
2022-08-26T09:20:54.660Z,31.54
2022-08-26T09:21:54.749Z,31.46
2022-08-26T09:22:55.190Z,31.45
2022-08-26T09:23:54.607Z,31.45
2022-08-26T09:24:55.652Z,31.39
2022-08-26T09:26:54.563Z,31.23
2022-08-26T09:27:54.634Z,31.19
2022-08-26T09:28:54.806Z,31.11
2022-08-26T09:29:59.911Z,31.08
2022-08-26T09:30:54.568Z,31.07
2022-08-26T09:31:54.667Z,31.01
2022-08-26T09:32:56.729Z,31.01
2022-08-26T09:35:04.967Z,31.02
2022-08-26T09:36:05.854Z,30.99
2022-08-26T09:37:05.902Z,31.02
2022-08-26T09:38:07.000Z,31.05
2022-08-26T09:39:05.835Z,31.05
2022-08-26T09:41:00.952Z,31.08
2022-08-26T09:42:19.172Z,31.08
2022-08-26T09:44:17.517Z,31.20
2022-08-26T09:47:20.520Z,32.28
2022-08-26T09:49:36.056Z,32.50
2022-08-26T09:51:24.500Z,32.41
2022-08-26T09:52:25.422Z,32.42
2022-08-26T09:54:15.864Z,32.60
2022-08-26T09:55:56.040Z,32.91
2022-08-26T09:56:16.797Z,33.30
2022-08-26T09:57:16.788Z,33.51
2022-08-26T09:58:16.978Z,34.00
2022-08-26T10:00:07.228Z,34.85
2022-08-26T10:02:29.755Z,35.72
2022-08-26T10:06:59.571Z,36.96
2022-08-26T10:08:00.622Z,37.15
2022-08-26T10:09:00.442Z,37.26
2022-08-26T10:10:00.448Z,37.34
2022-08-26T10:11:00.440Z,37.45
2022-08-26T10:12:00.461Z,37.70
2022-08-26T10:13:00.649Z,37.95
2022-08-26T10:14:00.482Z,38.20
2022-08-26T10:15:00.444Z,38.39
2022-08-26T10:16:00.635Z,38.60
2022-08-26T10:17:00.393Z,38.79
2022-08-26T10:18:00.371Z,39.01
2022-08-26T10:19:00.822Z,39.16
2022-08-26T10:20:00.638Z,39.27
2022-08-26T10:21:00.326Z,39.30
2022-08-26T10:22:00.359Z,39.49
2022-08-26T10:23:00.677Z,39.61
2022-08-26T10:24:07.565Z,39.73
2022-08-26T10:25:00.356Z,39.72
2022-08-26T10:26:00.317Z,39.72
2022-08-26T10:27:00.669Z,39.65
2022-08-26T10:28:02.075Z,39.61
2022-08-26T10:29:10.861Z,39.51
2022-08-26T10:30:00.311Z,39.48
2022-08-26T10:31:23.025Z,39.38
2022-08-26T10:32:07.915Z,39.28
2022-08-26T10:33:00.265Z,39.33
2022-08-26T10:34:00.753Z,39.49
2022-08-26T10:35:00.327Z,39.54
2022-08-26T10:36:06.194Z,39.55
2022-08-26T10:37:14.567Z,39.49
2022-08-26T10:38:00.269Z,39.14
2022-08-26T10:39:00.205Z,38.79
2022-08-26T10:40:00.251Z,38.37
2022-08-26T10:41:00.172Z,37.94
2022-08-26T10:42:00.166Z,37.57
2022-08-26T10:43:00.314Z,37.20
2022-08-26T10:44:00.303Z,36.83
2022-08-26T10:45:00.803Z,36.52
2022-08-26T10:46:00.234Z,36.36
2022-08-26T10:47:07.569Z,36.15
2022-08-26T10:48:00.174Z,36.06
2022-08-26T10:49:00.233Z,36.04
2022-08-26T10:50:03.283Z,35.69
2022-08-26T10:51:00.319Z,35.48
2022-08-26T10:52:16.514Z,35.41
2022-08-26T10:53:00.163Z,35.34
2022-08-26T10:54:22.094Z,35.24
2022-08-26T10:55:59.763Z,35.24
2022-08-26T10:56:05.684Z,35.21
2022-08-26T10:57:05.693Z,35.47
2022-08-26T10:58:09.087Z,36.09
2022-08-26T11:00:02.147Z,37.31
2022-08-26T11:01:53.580Z,38.18
2022-08-26T11:04:38.058Z,38.74
2022-08-26T11:06:50.927Z,39.08
2022-08-26T11:07:50.676Z,39.36
2022-08-26T11:08:50.685Z,39.57
2022-08-26T11:09:50.693Z,39.64
2022-08-26T11:10:51.674Z,39.73
2022-08-26T11:11:50.636Z,39.79
2022-08-26T11:12:50.621Z,39.76
2022-08-26T11:13:50.598Z,39.91
2022-08-26T11:14:56.133Z,40.02
2022-08-26T11:15:51.124Z,39.98
2022-08-26T11:16:52.786Z,39.91
2022-08-26T11:18:17.148Z,39.99
2022-08-26T11:18:51.315Z,40.17
2022-08-26T11:20:00.681Z,40.23
2022-08-26T11:20:50.631Z,40.35
2022-08-26T11:21:56.766Z,40.58
2022-08-26T11:24:36.626Z,41.31
2022-08-26T11:26:20.378Z,41.28
2022-08-26T11:26:56.375Z,40.67
2022-08-26T11:27:37.525Z,40.45
2022-08-26T11:29:51.814Z,40.77
2022-08-26T11:30:57.806Z,40.72
2022-08-26T11:31:52.197Z,40.84
2022-08-26T11:32:52.132Z,41.06
2022-08-26T11:33:52.164Z,41.02
2022-08-26T11:34:52.083Z,40.78
2022-08-26T11:35:52.387Z,40.77
2022-08-26T11:36:53.099Z,40.89
2022-08-26T11:37:52.758Z,41.05
2022-08-26T11:38:52.080Z,41.12
2022-08-26T11:41:03.364Z,41.28
2022-08-26T11:42:04.371Z,41.52
2022-08-26T11:43:04.688Z,41.62
2022-08-26T11:44:12.693Z,41.69
2022-08-26T11:45:12.606Z,41.55
2022-08-26T11:46:04.406Z,41.58
2022-08-26T11:47:04.314Z,41.49
2022-08-26T11:48:04.264Z,41.23
2022-08-26T11:49:04.321Z,41.21
2022-08-26T11:50:04.298Z,41.45
2022-08-26T11:51:04.432Z,41.65
2022-08-26T11:52:05.484Z,41.92
2022-08-26T11:53:04.236Z,42.12
2022-08-26T11:54:04.230Z,42.31
2022-08-26T11:55:04.367Z,42.49
2022-08-26T11:57:15.413Z,42.91
2022-08-26T11:58:26.033Z,42.91
2022-08-26T11:59:15.562Z,42.90
2022-08-26T12:00:20.490Z,43.08
2022-08-26T12:01:15.782Z,43.20
2022-08-26T12:02:16.084Z,43.41
2022-08-26T12:03:15.607Z,43.60
2022-08-26T12:04:15.726Z,43.69
2022-08-26T12:06:06.025Z,44.02
2022-08-26T12:08:18.170Z,44.16
2022-08-26T12:09:34.601Z,44.19
2022-08-26T12:10:18.800Z,44.05
2022-08-26T12:11:18.841Z,43.88
2022-08-26T12:12:18.844Z,43.95
2022-08-26T12:13:29.514Z,44.10
2022-08-26T12:14:18.773Z,44.35
2022-08-26T12:15:18.777Z,43.92
2022-08-26T12:16:20.277Z,43.33
2022-08-26T12:17:18.760Z,42.91
2022-08-26T12:18:28.637Z,42.59
2022-08-26T12:19:18.747Z,42.42
2022-08-26T12:20:18.811Z,42.62
2022-08-26T12:22:09.169Z,43.89
2022-08-26T12:23:10.170Z,43.95
2022-08-26T12:24:10.145Z,43.36
2022-08-26T12:25:10.090Z,42.46
2022-08-26T12:26:16.228Z,41.50
2022-08-26T12:27:41.624Z,40.77
2022-08-26T12:28:10.251Z,40.18
2022-08-26T12:29:19.894Z,39.73
2022-08-26T12:30:12.380Z,39.45
2022-08-26T12:31:10.059Z,39.17
2022-08-26T12:32:10.087Z,38.97
2022-08-26T12:33:22.529Z,38.79
2022-08-26T12:36:14.151Z,37.96
2022-08-26T12:37:15.072Z,37.77
2022-08-26T12:39:29.863Z,36.97
2022-08-26T12:41:21.134Z,36.51
2022-08-26T12:42:20.821Z,36.48
2022-08-26T12:45:08.591Z,35.65
2022-08-26T12:46:08.439Z,35.20
2022-08-26T12:47:08.649Z,34.86
2022-08-26T12:48:58.782Z,34.30
2022-08-26T12:49:59.695Z,34.15
2022-08-26T12:50:59.823Z,33.98
2022-08-26T12:52:00.459Z,33.85
2022-08-26T12:52:59.625Z,33.64
2022-08-26T12:53:59.626Z,33.51
2022-08-26T12:54:59.677Z,33.42
2022-08-26T12:55:59.610Z,33.27
2022-08-26T12:56:59.613Z,33.26
2022-08-26T12:57:59.646Z,33.22
2022-08-26T12:58:59.805Z,33.17
2022-08-26T12:59:59.602Z,33.07
2022-08-26T13:00:59.671Z,33.07
2022-08-26T13:01:59.898Z,33.12
2022-08-26T13:02:59.824Z,33.06
2022-08-26T13:03:59.568Z,33.03
2022-08-26T13:05:00.944Z,32.90
2022-08-26T13:05:59.753Z,32.45
2022-08-26T13:06:59.509Z,31.63
2022-08-26T13:07:59.581Z,30.88
2022-08-26T13:08:59.490Z,30.10
2022-08-26T13:09:59.534Z,29.49
2022-08-26T13:10:59.543Z,29.13
2022-08-26T13:12:08.684Z,29.02
2022-08-26T13:12:59.450Z,28.91
2022-08-26T13:13:59.475Z,28.87
2022-08-26T13:14:59.681Z,28.81
2022-08-26T13:16:01.030Z,28.75
2022-08-26T13:16:59.426Z,28.69
2022-08-26T13:17:59.442Z,28.74
2022-08-26T13:18:59.410Z,28.81
2022-08-26T13:20:03.444Z,28.86
2022-08-26T13:20:59.352Z,28.79
2022-08-26T13:22:20.361Z,28.49
2022-08-26T13:23:10.363Z,28.09
2022-08-26T13:24:02.573Z,27.76
2022-08-26T13:24:59.993Z,27.04
2022-08-26T13:25:59.333Z,26.23
2022-08-26T13:26:59.320Z,25.55
2022-08-26T13:27:59.326Z,25.04
2022-08-26T13:29:01.406Z,24.60
2022-08-26T13:30:00.005Z,24.25
2022-08-26T13:30:59.275Z,24.11
2022-08-26T13:32:33.005Z,24.01
2022-08-26T13:32:59.279Z,23.98
2022-08-26T13:35:12.507Z,24.34
2022-08-26T13:36:09.643Z,24.58
2022-08-26T13:37:09.603Z,24.78
2022-08-26T13:38:09.619Z,24.97
2022-08-26T13:39:10.856Z,25.19
2022-08-26T13:40:11.548Z,25.43
2022-08-26T13:41:09.544Z,25.61
2022-08-26T13:42:09.608Z,25.66
2022-08-26T13:43:10.018Z,25.74
2022-08-26T13:45:00.293Z,25.67
2022-08-26T13:46:01.283Z,25.67
2022-08-26T13:47:01.233Z,25.71
2022-08-26T13:48:01.315Z,25.75
2022-08-26T13:49:53.789Z,25.83
2022-08-26T13:50:53.570Z,25.88
2022-08-26T13:51:53.551Z,25.81
2022-08-26T13:52:53.593Z,25.77
2022-08-26T13:53:53.509Z,25.78
2022-08-26T13:54:53.564Z,25.77
2022-08-26T13:55:54.481Z,25.83
2022-08-26T13:56:53.507Z,25.86
2022-08-26T13:57:53.479Z,25.89
2022-08-26T13:58:53.479Z,26.00
2022-08-26T13:59:53.473Z,26.05
2022-08-26T14:00:53.629Z,26.19
2022-08-26T14:01:54.505Z,26.31
2022-08-26T14:02:53.544Z,26.46
2022-08-26T14:04:26.937Z,26.67
2022-08-26T14:04:53.406Z,26.83
2022-08-26T14:05:53.419Z,26.95
2022-08-26T14:06:53.483Z,27.00
2022-08-26T14:07:53.366Z,27.20
2022-08-26T14:08:53.376Z,27.40
2022-08-26T14:09:53.523Z,27.50
2022-08-26T14:10:53.362Z,27.50
2022-08-26T14:11:54.308Z,27.53
2022-08-26T14:12:53.356Z,27.58
2022-08-26T14:13:53.387Z,27.61
2022-08-26T14:14:53.798Z,27.73
2022-08-26T14:15:55.916Z,27.76
2022-08-26T14:16:59.477Z,27.73
2022-08-26T14:18:01.094Z,27.69
2022-08-26T14:18:53.344Z,27.58
2022-08-26T14:19:53.272Z,27.37
2022-08-26T14:20:53.256Z,27.23
2022-08-26T14:21:53.426Z,27.20
2022-08-26T14:23:55.144Z,27.27
2022-08-26T14:24:53.263Z,27.37
2022-08-26T14:25:53.215Z,27.50
2022-08-26T14:26:53.215Z,27.58
2022-08-26T14:29:05.371Z,27.53
2022-08-26T14:30:57.787Z,27.41
2022-08-26T14:31:57.485Z,27.42
2022-08-26T14:34:11.023Z,27.49
2022-08-26T14:36:03.713Z,27.54
2022-08-26T14:37:08.159Z,27.49
2022-08-26T14:38:31.198Z,27.45
2022-08-26T14:39:04.739Z,27.45
2022-08-26T14:40:04.746Z,27.41
2022-08-26T14:41:04.850Z,27.41
2022-08-26T14:42:04.669Z,27.38
2022-08-26T14:43:05.019Z,27.40
2022-08-26T14:46:08.571Z,27.42
2022-08-26T14:47:09.520Z,27.45
2022-08-26T14:49:19.825Z,27.53
2022-08-26T14:51:32.955Z,27.64
2022-08-26T14:52:32.830Z,27.66
2022-08-26T14:53:32.570Z,27.72